Time;durP1;ratioP1;P1;durP2;ratioP2;P2;SDS_P1;SDS_P2;PMS_P1;PMS_P2;Temp;Humidity;BMP_temperature;BMP_pressure;BME280_temperature;BME280_humidity;BME280_pressure;Samples;Min_cycle;Max_cycle;Signal;HPM_P1;HPM_P2
2022/10/22 00:02:07;;;;;;;1.23;0.63;;;;;;;16.30;100.00;99827.72;5011765;28;20052;-57
2022/10/22 00:04:33;;;;;;;2.45;0.60;;;;;;;16.35;100.00;99833.69;5011891;28;20026;-57
2022/10/22 00:06:58;;;;;;;2.63;0.57;;;;;;;16.34;100.00;99840.03;5011879;28;20057;-58
2022/10/22 00:09:24;;;;;;;0.77;0.52;;;;;;;16.29;100.00;99828.69;5011528;28;20113;-57
2022/10/22 00:11:50;;;;;;;2.63;0.80;;;;;;;16.25;100.00;99837.84;5011767;28;20022;-57
2022/10/22 00:14:15;;;;;;;0.50;0.50;;;;;;;16.27;100.00;99841.31;5011727;28;20548;-56
2022/10/22 00:16:41;;;;;;;1.33;0.52;;;;;;;16.25;100.00;99840.53;5011605;28;20026;-57
2022/10/22 00:19:08;;;;;;;0.60;0.50;;;;;;;16.24;100.00;99822.72;5011823;28;20041;-57
2022/10/22 00:21:36;;;;;;;0.88;0.63;;;;;;;16.22;100.00;99825.50;5011774;28;20030;-57
2022/10/22 00:24:01;;;;;;;2.15;0.80;;;;;;;16.22;100.00;99830.88;5011589;28;20041;-57
2022/10/22 00:26:27;;;;;;;4.80;0.60;;;;;;;16.25;100.00;99840.53;5008923;28;20124;-57
2022/10/22 00:28:53;;;;;;;1.65;0.70;;;;;;;16.24;100.00;99849.56;5011406;28;20034;-57
2022/10/22 00:31:19;;;;;;;1.67;0.60;;;;;;;16.22;100.00;99857.72;5011347;28;20053;-57
2022/10/22 00:33:47;;;;;;;1.13;0.60;;;;;;;16.21;100.00;99855.13;5011341;28;20057;-57
2022/10/22 00:36:14;;;;;;;3.38;0.60;;;;;;;16.27;100.00;99854.75;5011357;28;20048;-57
2022/10/22 00:38:40;;;;;;;3.55;0.75;;;;;;;16.24;100.00;99830.78;5011354;28;20087;-57
2022/10/22 00:41:05;;;;;;;4.15;1.00;;;;;;;16.28;100.00;99845.72;5022529;28;20040;-57
2022/10/22 00:43:31;;;;;;;2.72;0.80;;;;;;;16.21;100.00;99830.97;5031259;28;20029;-57
2022/10/22 00:45:57;;;;;;;2.67;0.60;;;;;;;16.28;100.00;99840.34;5031241;28;20503;-57
2022/10/22 00:48:25;;;;;;;1.58;0.50;;;;;;;16.26;100.00;99827.03;5031062;28;20021;-58
2022/10/22 00:50:56;;;;;;;2.00;0.75;;;;;;;16.27;100.00;99830.59;5031165;28;20045;-57
2022/10/22 00:53:28;;;;;;;1.42;0.57;;;;;;;16.25;100.00;99827.13;5031033;28;20045;-57
2022/10/22 00:55:54;;;;;;;3.05;0.75;;;;;;;16.26;100.00;99828.88;5011957;28;20474;-57
2022/10/22 00:58:26;;;;;;;6.82;0.80;;;;;;;16.26;100.00;99839.63;5011232;28;20060;-58
2022/10/22 01:00:52;;;;;;;1.42;0.80;;;;;;;16.27;100.00;99854.75;5011513;28;20101;-62
2022/10/22 01:03:17;;;;;;;4.22;0.63;;;;;;;16.25;100.00;99865.56;5005518;28;20029;-62
2022/10/22 01:05:52;;;;;;;0.50;0.50;;;;;;;16.21;100.00;99872.06;5011151;28;20030;-62
2022/10/22 01:08:31;;;;;;;1.17;0.57;;;;;;;16.19;100.00;99862.38;5010841;28;20057;-61
2022/10/22 01:11:14;;;;;;;1.15;0.60;;;;;;;16.22;100.00;99870.25;5010634;28;20029;-61
2022/10/22 01:14:04;;;;;;;1.30;0.90;;;;;;;16.19;100.00;99881.16;5011116;28;20030;-62
2022/10/22 01:17:06;;;;;;;2.50;0.70;;;;;;;16.13;100.00;99905.69;5011093;28;20409;-62
2022/10/22 01:20:05;;;;;;;4.25;0.65;;;;;;;16.16;100.00;99932.34;5012432;28;20051;-62
2022/10/22 01:22:42;;;;;;;0.55;0.55;;;;;;;16.12;100.00;99962.97;5002211;28;20034;-61
2022/10/22 01:25:30;;;;;;;0.75;0.60;;;;;;;16.10;100.00;99964.88;5014653;28;20552;-62
2022/10/22 01:28:33;;;;;;;3.17;0.80;;;;;;;16.11;100.00;99988.94;5014653;28;20064;-61
2022/10/22 01:30:59;;;;;;;3.38;0.88;;;;;;;16.05;100.00;99983.91;5014689;28;20024;-61
2022/10/22 01:33:27;;;;;;;0.85;0.77;;;;;;;16.11;100.00;99982.72;5014625;28;20053;-61
2022/10/22 01:35:53;;;;;;;2.45;1.30;;;;;;;16.14;100.00;99974.50;5014653;28;20026;-62
2022/10/22 01:38:23;;;;;;;4.07;1.38;;;;;;;16.15;100.00;99969.03;5014477;28;20030;-61
2022/10/22 01:40:49;;;;;;;2.92;1.48;;;;;;;16.14;100.00;99950.34;5014457;28;20037;-61
2022/10/22 01:43:15;;;;;;;2.15;1.40;;;;;;;16.19;100.00;99937.53;5026867;28;20159;-61
2022/10/22 01:45:58;;;;;;;2.85;1.40;;;;;;;16.16;100.00;99929.66;5034437;28;20033;-61
2022/10/22 01:48:41;;;;;;;3.00;1.55;;;;;;;16.12;100.00;99904.81;5034100;28;20484;-61
2022/10/22 01:51:12;;;;;;;2.63;1.40;;;;;;;16.13;100.00;99874.31;5034262;28;20018;-62
2022/10/22 01:53:54;;;;;;;2.92;1.50;;;;;;;16.05;100.00;99855.13;5028364;28;20100;-62
2022/10/22 01:56:48;;;;;;;6.78;1.50;;;;;;;16.00;100.00;99850.97;5014322;28;20476;-62
2022/10/22 01:59:41;;;;;;;5.35;1.77;;;;;;;15.98;100.00;99863.63;5014083;28;20568;-61
2022/10/22 02:02:09;;;;;;;4.25;2.05;;;;;;;16.05;100.00;99862.28;5014107;28;20529;-62
2022/10/22 02:04:43;;;;;;;6.97;1.63;;;;;;;16.05;100.00;99840.81;5013739;28;20088;-61
2022/10/22 02:07:14;;;;;;;3.20;1.33;;;;;;;15.92;100.00;99826.38;5014103;28;20527;-61
2022/10/22 02:09:40;;;;;;;3.03;1.23;;;;;;;15.97;100.00;99825.19;5014243;28;20436;-61
2022/10/22 02:12:08;;;;;;;1.88;1.00;;;;;;;15.99;100.00;99823.28;5014260;28;20022;-63
2022/10/22 02:14:37;;;;;;;1.65;0.90;;;;;;;15.98;100.00;99805.44;5013839;28;20100;-62
2022/10/22 02:17:05;;;;;;;1.15;0.80;;;;;;;15.91;100.00;99781.75;5013746;28;20056;-62
2022/10/22 02:19:52;;;;;;;1.00;0.70;;;;;;;15.94;100.00;99777.06;5013889;28;20025;-62
2022/10/22 02:22:18;;;;;;;2.22;0.98;;;;;;;15.94;100.00;99770.84;5013746;28;20063;-63
2022/10/22 02:24:44;;;;;;;2.20;0.70;;;;;;;15.89;100.00;99762.19;5011367;28;20034;-61
2022/10/22 02:27:20;;;;;;;1.00;0.52;;;;;;;15.92;100.00;99749.47;5013700;28;20036;-62
2022/10/22 02:30:00;;;;;;;0.75;0.60;;;;;;;15.87;100.00;99750.69;5013818;28;20029;-62
2022/10/22 02:32:33;;;;;;;1.10;0.80;;;;;;;15.88;100.00;99765.84;5013440;28;20493;-62
2022/10/22 02:35:00;;;;;;;2.77;0.97;;;;;;;15.96;100.00;99779.66;5013426;28;20026;-61
2022/10/22 02:37:27;;;;;;;3.15;1.30;;;;;;;15.97;100.00;99784.06;5013463;28;20038;-62
2022/10/22 02:39:55;;;;;;;1.02;0.70;;;;;;;15.96;100.00;99795.75;5021844;28;20072;-62
2022/10/22 02:42:25;;;;;;;3.15;0.82;;;;;;;15.98;100.00;99799.22;5031325;28;20400;-62
2022/10/22 02:44:50;;;;;;;1.90;0.70;;;;;;;16.00;100.00;99794.63;5033115;28;20029;-61
2022/10/22 02:47:16;;;;;;;4.78;0.85;;;;;;;16.02;100.00;99806.13;5033288;28;20048;-62
2022/10/22 02:49:41;;;;;;;4.18;1.00;;;;;;;16.04;100.00;99831.06;5024863;28;20104;-62
2022/10/22 02:52:07;;;;;;;3.05;0.90;;;;;;;16.03;100.00;99832.03;5012873;28;20029;-62
2022/10/22 02:54:32;;;;;;;1.55;1.20;;;;;;;16.02;100.00;99838.31;5012775;28;20083;-62
2022/10/22 02:57:03;;;;;;;3.55;0.90;;;;;;;16.03;100.00;99845.44;5013428;28;20409;-62
2022/10/22 02:59:28;;;;;;;2.53;0.68;;;;;;;16.05;100.00;99844.38;5013137;28;20030;-62
2022/10/22 03:01:54;;;;;;;2.28;0.45;;;;;;;16.00;100.00;99853.63;5012966;28;20109;-62
2022/10/22 03:04:19;;;;;;;1.10;0.68;;;;;;;15.99;100.00;99865.34;5012724;28;20032;-62
2022/10/22 03:06:47;;;;;;;1.95;0.65;;;;;;;15.97;100.00;99868.09;5012856;28;20064;-62
2022/10/22 03:09:12;;;;;;;2.47;0.60;;;;;;;15.93;100.00;99871.06;5012644;28;20034;-62
2022/10/22 03:11:38;;;;;;;1.15;0.90;;;;;;;15.93;100.00;99869.22;5012931;28;20033;-62
2022/10/22 03:14:04;;;;;;;1.55;0.70;;;;;;;15.91;100.00;99867.59;5010711;28;20033;-62
2022/10/22 03:16:29;;;;;;;0.90;0.70;;;;;;;15.88;100.00;99867.78;5022555;28;20022;-62
2022/10/22 03:18:55;;;;;;;2.05;0.82;;;;;;;15.88;100.00;99873.13;5032439;28;20029;-62
2022/10/22 03:21:33;;;;;;;4.28;1.00;;;;;;;15.81;100.00;99876.13;5032346;28;20125;-61
2022/10/22 03:24:12;;;;;;;2.92;0.95;;;;;;;15.80;100.00;99866.38;5032391;28;20064;-62
2022/10/22 03:26:40;;;;;;;1.65;0.75;;;;;;;15.83;100.00;99868.88;5017580;28;20512;-62
2022/10/22 03:29:05;;;;;;;2.38;0.80;;;;;;;15.81;100.00;99873.47;5012525;28;20053;-61
2022/10/22 03:31:31;;;;;;;1.00;0.88;;;;;;;15.83;100.00;99878.75;5012465;28;20425;-62
2022/10/22 03:33:56;;;;;;;1.70;0.82;;;;;;;15.83;100.00;99882.28;5012286;28;20409;-61
2022/10/22 03:36:22;;;;;;;1.83;0.70;;;;;;;15.85;100.00;99873.31;5012477;28;20033;-61
2022/10/22 03:38:47;;;;;;;2.78;0.80;;;;;;;15.85;100.00;99874.16;5012487;28;20046;-61
2022/10/22 03:41:13;;;;;;;1.40;0.90;;;;;;;15.85;100.00;99879.53;5012196;28;20481;-61
2022/10/22 03:43:39;;;;;;;1.23;0.70;;;;;;;15.87;100.00;99871.38;5011862;28;20465;-61
2022/10/22 03:46:05;;;;;;;3.33;0.80;;;;;;;15.86;100.00;99875.03;5025947;28;20067;-61
2022/10/22 03:48:31;;;;;;;12.32;2.25;;;;;;;15.85;100.00;99874.16;5031413;28;20038;-61
2022/10/22 03:50:56;;;;;;;4.45;1.17;;;;;;;15.88;100.00;99881.19;5021218;28;20022;-60
2022/10/22 03:53:21;;;;;;;4.95;0.88;;;;;;;15.85;100.00;99878.69;5011265;28;20046;-61
2022/10/22 03:55:47;;;;;;;1.35;0.60;;;;;;;15.86;100.00;99880.41;5010980;28;20033;-61
2022/10/22 03:58:12;;;;;;;1.30;0.80;;;;;;;15.87;100.00;99887.47;5010208;28;20524;-61
2022/10/22 04:00:38;;;;;;;9.93;1.10;;;;;;;15.86;100.00;99880.41;5009707;28;20026;-61
2022/10/22 04:03:03;;;;;;;2.55;0.70;;;;;;;15.90;100.00;99882.81;5009964;28;20029;-60
2022/10/22 04:05:31;;;;;;;1.02;0.70;;;;;;;15.90;100.00;99884.66;5010966;28;20097;-61
2022/10/22 04:07:57;;;;;;;0.85;0.55;;;;;;;15.90;100.00;99881.97;5010764;28;20053;-61
2022/10/22 04:10:22;;;;;;;4.13;0.63;;;;;;;15.92;100.00;99877.34;5010548;28;20422;-61
2022/10/22 04:12:48;;;;;;;0.68;0.50;;;;;;;15.90;100.00;99881.97;5011963;28;20108;-61
2022/10/22 04:15:14;;;;;;;1.40;0.70;;;;;;;15.81;100.00;99878.81;5011744;28;20069;-61
2022/10/22 04:17:39;;;;;;;1.98;0.70;;;;;;;15.88;100.00;99899.97;5011657;28;20112;-61
2022/10/22 04:20:05;;;;;;;3.70;0.70;;;;;;;15.80;100.00;99903.94;5011467;28;20026;-61
2022/10/22 04:22:34;;;;;;;3.90;0.60;;;;;;;15.79;100.00;99902.22;5011656;28;20049;-62
2022/10/22 04:25:00;;;;;;;5.03;0.75;;;;;;;15.74;100.00;99901.59;5011411;28;20026;-61
2022/10/22 04:27:29;;;;;;;1.40;0.60;;;;;;;15.71;100.00;99904.44;5011464;28;20045;-62
2022/10/22 04:29:54;;;;;;;2.25;0.73;;;;;;;15.69;100.00;99911.72;5011344;28;20500;-61
2022/10/22 04:32:20;;;;;;;1.65;1.02;;;;;;;15.69;100.00;99895.63;5011381;28;20109;-62
2022/10/22 04:34:45;;;;;;;1.55;0.77;;;;;;;15.49;100.00;99903.88;5011471;28;20025;-61
2022/10/22 04:37:11;;;;;;;6.13;0.80;;;;;;;15.45;100.00;99912.19;5011484;28;20026;-62
2022/10/22 04:39:36;;;;;;;1.70;1.10;;;;;;;15.54;100.00;99917.03;5028077;28;20032;-62
2022/10/22 04:42:02;;;;;;;7.80;1.25;;;;;;;15.51;100.00;99918.06;5031153;28;20030;-61
2022/10/22 04:44:28;;;;;;;4.15;1.30;;;;;;;15.51;100.00;99920.75;5031386;28;20555;-61
2022/10/22 04:46:53;;;;;;;4.38;1.10;;;;;;;15.54;100.00;99917.91;5017619;28;20029;-61
2022/10/22 04:49:19;;;;;;;3.65;1.55;;;;;;;15.56;100.00;99916.00;5011336;28;20084;-61
2022/10/22 04:51:44;;;;;;;5.22;1.83;;;;;;;15.61;100.00;99913.06;5011506;28;20030;-61
2022/10/22 04:54:10;;;;;;;4.00;1.73;;;;;;;15.59;100.00;99920.31;5011195;28;20153;-61
2022/10/22 04:56:35;;;;;;;2.42;1.50;;;;;;;15.58;100.00;99908.72;5012910;28;20028;-62
2022/10/22 04:59:04;;;;;;;2.85;1.52;;;;;;;15.63;100.00;99920.06;5015284;28;20026;-61
2022/10/22 05:01:38;;;;;;;4.72;1.77;;;;;;;15.64;100.00;99919.13;5015056;28;20737;-62
2022/10/22 05:04:05;;;;;;;6.95;2.03;;;;;;;15.65;100.00;99926.22;5015154;28;20382;-62
2022/10/22 05:06:33;;;;;;;4.00;1.98;;;;;;;15.67;100.00;99927.00;5015410;28;20070;-62
2022/10/22 05:09:01;;;;;;;3.53;1.88;;;;;;;15.67;100.00;99931.50;5015151;28;20065;-61
2022/10/22 05:11:30;;;;;;;3.03;1.70;;;;;;;15.65;100.00;99936.94;5015023;28;20026;-62
2022/10/22 05:13:57;;;;;;;3.63;1.63;;;;;;;15.60;100.00;99930.97;5014975;28;20030;-62
2022/10/22 05:16:23;;;;;;;2.72;0.98;;;;;;;15.57;100.00;99939.19;5019376;28;20026;-61
2022/10/22 05:18:48;;;;;;;3.80;1.10;;;;;;;15.57;100.00;99935.63;5017683;28;20051;-62
2022/10/22 05:21:16;;;;;;;1.95;1.17;;;;;;;15.61;100.00;99945.25;5014772;28;20018;-62
2022/10/22 05:23:43;;;;;;;2.13;1.23;;;;;;;15.62;100.00;99952.34;5015058;28;20041;-61
2022/10/22 05:26:11;;;;;;;3.92;1.15;;;;;;;15.61;100.00;99954.16;5014691;28;20124;-61
2022/10/22 05:28:37;;;;;;;5.85;1.20;;;;;;;15.65;100.00;99946.78;5014752;28;20040;-61
2022/10/22 05:31:04;;;;;;;2.13;0.80;;;;;;;15.64;100.00;99951.31;5014563;28;20026;-62
2022/10/22 05:33:31;;;;;;;6.18;0.73;;;;;;;15.59;100.00;99950.69;5014627;28;20073;-62
2022/10/22 05:35:57;;;;;;;5.60;1.25;;;;;;;15.65;100.00;99958.41;5014471;28;20715;-62
2022/10/22 05:38:23;;;;;;;1.50;1.30;;;;;;;15.67;100.00;99955.63;5014645;28;20354;-62
2022/10/22 05:40:59;;;;;;;2.53;1.20;;;;;;;15.64;100.00;99951.31;5032184;28;20033;-62
2022/10/22 05:43:24;;;;;;;5.10;1.25;;;;;;;15.62;100.00;99957.69;5019824;28;20022;-61
2022/10/22 05:45:50;;;;;;;3.92;1.20;;;;;;;15.63;100.00;99965.66;5014344;28;20219;-62
2022/10/22 05:48:15;;;;;;;4.55;1.40;;;;;;;15.63;100.00;99965.66;5014439;28;20549;-62
2022/10/22 05:50:41;;;;;;;3.70;1.40;;;;;;;15.61;100.00;99974.75;5014401;28;20486;-62
2022/10/22 05:53:06;;;;;;;2.90;1.30;;;;;;;15.59;100.00;99980.19;5014379;28;20021;-62
2022/10/22 05:55:35;;;;;;;1.90;1.00;;;;;;;15.59;100.00;99980.19;5013871;28;20021;-61
2022/10/22 05:58:02;;;;;;;2.45;1.33;;;;;;;15.55;100.00;99983.97;5014344;28;20030;-62
2022/10/22 06:00:28;;;;;;;2.97;1.60;;;;;;;15.55;100.00;99989.31;5014424;28;20041;-62
2022/10/22 06:02:53;;;;;;;6.55;1.80;;;;;;;15.56;100.00;99996.44;5014245;28;20030;-62
2022/10/22 06:05:19;;;;;;;3.38;1.70;;;;;;;15.51;100.00;99987.78;5013861;28;20124;-62
2022/10/22 06:07:44;;;;;;;8.23;2.03;;;;;;;15.53;100.00;99998.41;5013270;28;20036;-62
2022/10/22 06:10:15;;;;;;;3.90;1.40;;;;;;;15.52;100.00;99993.97;5012327;28;20375;-61
2022/10/22 06:12:41;;;;;;;1.90;1.05;;;;;;;15.49;100.00;99995.03;5011514;28;20037;-62
2022/10/22 06:15:08;;;;;;;1.73;1.10;;;;;;;15.46;100.00;100000.56;5013744;28;20033;-62
2022/10/22 06:17:34;;;;;;;2.00;0.90;;;;;;;15.44;100.00;99997.09;5013854;28;20026;-62
2022/10/22 06:19:59;;;;;;;2.35;1.08;;;;;;;15.47;100.00;100004.97;5013952;28;20041;-61
2022/10/22 06:22:24;;;;;;;8.30;1.08;;;;;;;15.46;100.00;100005.91;5009570;28;20077;-62
2022/10/22 06:24:51;;;;;;;4.28;1.02;;;;;;;15.48;100.00;100014.75;5007851;28;20385;-62
2022/10/22 06:27:16;;;;;;;1.98;1.25;;;;;;;15.49;100.00;100021.84;5001833;28;20037;-61
2022/10/22 06:29:42;;;;;;;1.60;1.00;;;;;;;15.49;100.00;100016.47;4999861;28;20030;-62
2022/10/22 06:32:07;;;;;;;3.92;1.30;;;;;;;15.52;100.00;100027.03;5005430;28;20029;-62
2022/10/22 06:34:32;;;;;;;1.73;0.95;;;;;;;15.52;100.00;100020.78;5016980;28;20376;-61
2022/10/22 06:36:58;;;;;;;2.80;1.33;;;;;;;15.51;100.00;100025.31;5013412;28;20101;-61
2022/10/22 06:39:23;;;;;;;3.38;1.38;;;;;;;15.70;100.00;100030.53;4997201;28;20084;-62
2022/10/22 06:41:49;;;;;;;3.00;1.60;;;;;;;15.73;100.00;100033.09;5003004;28;20033;-61
2022/10/22 06:44:16;;;;;;;3.60;1.48;;;;;;;15.77;100.00;100040.88;4998295;28;20040;-62
2022/10/22 06:46:42;;;;;;;3.35;1.50;;;;;;;15.80;100.00;100043.41;5006623;28;20366;-62
2022/10/22 06:49:12;;;;;;;4.43;1.92;;;;;;;15.87;100.00;100048.41;5017243;28;20030;-62
2022/10/22 06:51:38;;;;;;;4.75;1.77;;;;;;;15.95;100.00;100048.91;5004816;28;20029;-62
2022/10/22 06:54:03;;;;;;;2.95;1.60;;;;;;;16.01;100.00;100048.56;4994694;28;20042;-61
2022/10/22 06:56:29;;;;;;;3.55;1.73;;;;;;;16.12;100.00;100065.81;4998652;28;20051;-62
2022/10/22 06:58:56;;;;;;;5.32;1.92;;;;;;;16.23;100.00;100057.16;5002285;28;20026;-62
2022/10/22 07:01:24;;;;;;;3.83;1.70;;;;;;;16.58;100.00;100057.00;4997431;28;20034;-62
2022/10/22 07:03:50;;;;;;;4.55;1.90;;;;;;;17.13;100.00;100054.69;4998195;28;20157;-62
2022/10/22 07:06:16;;;;;;;6.13;1.92;;;;;;;17.52;100.00;100060.41;5001576;28;20064;-62
2022/10/22 07:08:42;;;;;;;8.05;2.72;;;;;;;17.95;100.00;100056.84;4995687;28;20144;-61
2022/10/22 07:11:14;;;;;;;4.35;2.15;;;;;;;18.68;100.00;100060.28;4998663;28;20749;-62
2022/10/22 07:13:39;;;;;;;7.05;2.40;;;;;;;19.41;100.00;100058.03;5002039;28;20417;-62
2022/10/22 07:16:06;;;;;;;5.85;1.75;;;;;;;19.40;100.00;100060.81;5002736;28;20026;-62
2022/10/22 07:18:32;;;;;;;2.40;1.80;;;;;;;19.34;100.00;100066.66;5000206;28;20064;-62
2022/10/22 07:20:58;;;;;;;8.35;3.67;;;;;;;19.00;98.79;100068.00;4991918;28;20033;-62
2022/10/22 07:23:24;;;;;;;8.60;3.53;;;;;;;18.63;100.00;100067.81;4998021;28;20050;-62
2022/10/22 07:25:49;;;;;;;3.38;1.80;;;;;;;19.08;100.00;100072.88;4996836;28;20086;-62
2022/10/22 07:28:15;;;;;;;3.65;1.73;;;;;;;19.63;98.48;100076.31;4993839;28;20025;-61
2022/10/22 07:30:41;;;;;;;3.40;1.45;;;;;;;20.67;94.29;100068.88;4994587;28;20041;-62
2022/10/22 07:33:06;;;;;;;4.72;1.30;;;;;;;21.43;85.21;100074.88;4997040;28;20029;-62
2022/10/22 07:35:33;;;;;;;7.95;3.42;;;;;;;22.13;80.43;100068.44;4993829;28;20986;-62
2022/10/22 07:37:59;;;;;;;3.00;1.40;;;;;;;22.76;76.47;100082.28;4994079;28;20692;-62
2022/10/22 07:40:24;;;;;;;2.47;1.30;;;;;;;23.61;72.55;100075.19;4994168;28;20029;-62
2022/10/22 07:42:50;;;;;;;4.35;1.48;;;;;;;25.22;64.24;100072.44;4995794;28;20034;-62
2022/10/22 07:45:15;;;;;;;6.90;1.80;;;;;;;25.43;60.18;100084.13;4993919;28;20018;-62
2022/10/22 07:47:40;;;;;;;3.42;1.20;;;;;;;24.75;62.13;100080.47;4997734;28;20030;-62
2022/10/22 07:50:06;;;;;;;2.80;1.00;;;;;;;24.15;62.87;100092.19;4994807;28;20029;-61
2022/10/22 07:52:32;;;;;;;2.35;1.00;;;;;;;23.29;67.40;100086.88;4996320;28;20161;-62
2022/10/22 07:54:57;;;;;;;2.25;1.10;;;;;;;22.72;68.93;100091.66;4997035;28;20032;-63
2022/10/22 07:57:23;;;;;;;2.95;1.20;;;;;;;21.68;73.63;100091.81;4998876;28;21260;-62
2022/10/22 07:59:49;;;;;;;2.90;1.00;;;;;;;20.73;79.49;100096.31;4996457;28;20537;-62
2022/10/22 08:02:14;;;;;;;2.40;0.98;;;;;;;19.99;83.82;100098.06;5007858;28;20026;-62
2022/10/22 08:04:40;;;;;;;2.97;0.90;;;;;;;19.52;88.03;100097.78;5007946;28;20521;-62
2022/10/22 08:07:05;;;;;;;2.03;1.08;;;;;;;19.51;91.38;100096.03;4995603;28;20029;-62
2022/10/22 08:09:31;;;;;;;1.15;0.55;;;;;;;20.64;88.49;100101.53;4994217;28;20041;-62
2022/10/22 08:11:57;;;;;;;2.17;0.70;;;;;;;22.90;79.11;100102.88;4992745;28;20030;-62
2022/10/22 08:14:22;;;;;;;1.25;0.60;;;;;;;24.66;68.30;100093.03;4993533;28;20041;-62
2022/10/22 08:16:48;;;;;;;1.25;0.60;;;;;;;26.28;60.31;100108.75;4992241;28;20447;-63
2022/10/22 08:19:17;;;;;;;2.15;0.68;;;;;;;27.39;55.13;100107.72;4991770;28;20038;-63
2022/10/22 08:21:43;;;;;;;2.55;0.60;;;;;;;28.25;53.08;100107.91;4994942;28;20030;-63
2022/10/22 08:24:09;;;;;;;4.90;0.70;;;;;;;29.24;49.24;100102.66;4995103;28;20030;-63
2022/10/22 08:26:34;;;;;;;4.20;1.27;;;;;;;29.80;46.06;100112.06;4994518;28;20045;-63
2022/10/22 08:28:59;;;;;;;1.92;0.60;;;;;;;29.65;47.12;100120.94;4993888;28;20451;-62
2022/10/22 08:31:25;;;;;;;1.88;0.43;;;;;;;29.68;45.54;100122.50;4996132;28;20381;-62
2022/10/22 08:33:50;;;;;;;1.73;0.40;;;;;;;29.00;47.49;100118.97;4991304;28;20030;-62
2022/10/22 08:36:16;;;;;;;0.50;0.38;;;;;;;29.35;46.85;100115.19;4993300;28;20034;-62
2022/10/22 08:38:41;;;;;;;1.60;0.40;;;;;;;29.69;46.45;100124.22;4992241;28;20030;-63
2022/10/22 08:41:11;;;;;;;1.17;0.47;;;;;;;29.72;47.18;100125.78;4994170;28;20894;-63
2022/10/22 08:43:54;;;;;;;1.15;0.50;;;;;;;28.83;48.50;100121.81;4999862;28;20085;-62
2022/10/22 08:46:32;;;;;;;;;;;;;;;29.14;47.89;100128.50;4993421;28;20520;-63
2022/10/22 08:49:02;;;;;;;2.35;0.70;;;;;;;29.43;47.39;100132.53;4994294;28;19913;-63
2022/10/22 08:51:33;;;;;;;1.65;0.50;;;;;;;28.38;49.31;100142.00;4994830;28;20033;-63
2022/10/22 08:54:13;;;;;;;1.80;0.50;;;;;;;27.14;52.62;100133.88;4997560;28;20390;-62
2022/10/22 08:56:43;;;;;;;1.20;0.50;;;;;;;26.81;55.38;100139.94;5001404;28;20773;-62
2022/10/22 08:59:43;;;;;;;2.80;0.68;;;;;;;26.77;54.87;100143.97;4998812;28;20034;-61
2022/10/22 09:02:53;;;;;;;2.95;0.75;;;;;;;27.43;54.61;100137.31;5000218;28;20038;-62
2022/10/22 09:05:56;;;;;;;2.15;0.60;;;;;;;27.89;53.39;100141.75;4988317;28;20077;-62
2022/10/22 09:08:24;;;;;;;1.38;0.88;;;;;;;28.17;52.42;100144.25;4998607;28;20982;-63
2022/10/22 09:10:57;;;;;;;3.28;0.85;;;;;;;27.51;52.40;100147.50;5000777;28;20041;-62
2022/10/22 09:13:23;;;;;;;2.20;0.60;;;;;;;27.56;53.20;100154.19;4995044;28;20477;-61
2022/10/22 09:15:57;;;;;;;4.35;1.10;;;;;;;27.77;53.88;100157.53;5001282;28;20034;-62
2022/10/22 09:18:45;;;;;;;2.88;1.00;;;;;;;28.15;52.68;100149.03;4997037;28;20480;-63
2022/10/22 09:21:41;;;;;;;3.25;0.63;;;;;;;27.59;53.51;100151.19;5001253;28;20065;-63
2022/10/22 09:24:32;;;;;;;1.83;0.77;;;;;;;27.19;54.50;100151.53;5000167;28;20033;-62
2022/10/22 09:26:58;;;;;;;1.45;0.65;;;;;;;27.09;55.56;100160.78;5002631;28;20113;-62
2022/10/22 09:29:31;;;;;;;1.85;0.77;;;;;;;27.06;56.44;100147.44;5000462;28;20026;-63
2022/10/22 09:31:56;;;;;;;2.03;0.95;;;;;;;26.63;56.99;100164.38;4997034;28;20022;-62
2022/10/22 09:34:22;;;;;;;5.50;1.52;;;;;;;26.89;56.40;100164.59;4998832;28;20026;-61
2022/10/22 09:36:57;;;;;;;10.55;2.83;;;;;;;27.07;56.33;100165.53;4998283;28;20034;-62
2022/10/22 09:39:28;;;;;;;10.10;2.63;;;;;;;27.08;56.42;100172.72;4999581;28;20101;-61
2022/10/22 09:41:53;;;;;;;4.95;1.50;;;;;;;27.39;54.62;100170.59;5006166;28;20032;-62
2022/10/22 09:44:19;;;;;;;5.40;1.10;;;;;;;27.67;54.84;100167.66;5003887;28;20037;-61
2022/10/22 09:46:45;;;;;;;4.30;1.55;;;;;;;27.79;54.95;100166.41;5005267;28;20108;-61
2022/10/22 09:49:17;;;;;;;4.15;1.08;;;;;;;28.12;52.67;100173.94;5003597;28;20732;-61
2022/10/22 09:51:57;;;;;;;5.13;0.95;;;;;;;27.95;54.80;100177.56;5002165;28;20033;-61
2022/10/22 09:54:31;;;;;;;3.45;0.70;;;;;;;28.07;54.71;100178.19;5003085;28;20093;-62
2022/10/22 09:57:17;;;;;;;1.77;0.40;;;;;;;28.07;53.50;100170.81;5002207;28;20069;-63
2022/10/22 09:59:47;;;;;;;1.05;0.52;;;;;;;27.88;53.13;100175.56;5002375;28;20052;-63
2022/10/22 10:02:18;;;;;;;6.13;0.95;;;;;;;27.51;53.03;100172.09;5005142;28;20034;-63
2022/10/22 10:04:49;;;;;;;2.13;0.50;;;;;;;27.20;54.98;100185.16;5001823;28;20864;-63
2022/10/22 10:07:24;;;;;;;0.93;0.30;;;;;;;27.61;54.88;100179.19;5005740;28;20037;-62
2022/10/22 10:09:50;;;;;;;2.20;0.60;;;;;;;27.81;53.56;100175.31;5008075;28;20025;-62
2022/10/22 10:12:32;;;;;;;1.10;0.38;;;;;;;27.88;53.01;100176.44;5007219;28;20034;-62
2022/10/22 10:15:26;;;;;;;1.85;0.50;;;;;;;27.85;53.75;100186.81;5007471;28;20034;-63
2022/10/22 10:18:07;;;;;;;0.98;0.35;;;;;;;27.75;54.20;100189.63;4998842;28;20049;-63
2022/10/22 10:20:35;;;;;;;2.05;0.50;;;;;;;27.60;54.30;100185.69;5003048;28;20041;-62
2022/10/22 10:23:38;;;;;;;0.60;0.50;;;;;;;27.54;53.76;100188.19;5006820;28;20041;-61
2022/10/22 10:26:15;;;;;;;0.93;0.40;;;;;;;27.92;55.17;100188.81;5009444;28;20050;-63
2022/10/22 10:29:16;;;;;;;1.02;0.50;;;;;;;28.18;53.48;100189.75;5007089;28;20036;-62
2022/10/22 10:32:26;;;;;;;2.97;0.40;;;;;;;28.86;52.06;100181.72;5001571;28;20050;-62
2022/10/22 10:35:03;;;;;;;0.52;0.25;;;;;;;29.07;49.77;100188.53;4974058;28;20265;-62
2022/10/22 10:37:40;;;;;;;8.55;1.10;;;;;;;29.20;50.90;100172.53;5011748;28;20061;-61
2022/10/22 10:40:43;;;;;;;1.10;0.30;;;;;;;29.39;48.58;100176.91;5013228;28;20055;-62
2022/10/22 10:43:15;;;;;;;1.98;0.75;;;;;;;29.43;49.20;100181.00;5005107;28;20022;-62
2022/10/22 10:46:08;;;;;;;2.45;0.40;;;;;;;29.48;48.90;100181.38;5007335;28;20041;-62
2022/10/22 10:48:54;;;;;;;;;;;;;;;29.69;49.55;100179.06;5010287;28;20033;-62
2022/10/22 10:51:36;;;;;;;0.45;0.30;;;;;;;29.58;49.59;100177.47;5007905;28;20044;-63
2022/10/22 10:54:01;;;;;;;2.53;0.60;;;;;;;29.66;48.49;100179.41;5005368;28;20092;-63
2022/10/22 10:56:27;;;;;;;4.30;1.10;;;;;;;29.32;47.68;100181.31;4999796;28;20429;-63
2022/10/22 10:59:21;;;;;;;5.57;2.47;;;;;;;29.14;49.93;100181.38;4999877;28;20068;-63
2022/10/22 11:02:12;;;;;;;2.35;0.50;;;;;;;29.05;52.29;100174.13;4999489;28;20411;-63
2022/10/22 11:04:54;;;;;;;0.85;0.45;;;;;;;29.24;48.99;100173.91;4999716;28;20448;-63
2022/10/22 11:07:27;;;;;;;1.25;0.35;;;;;;;29.41;47.01;100174.81;5001515;28;20034;-63
2022/10/22 11:09:59;;;;;;;1.38;0.40;;;;;;;29.55;46.86;100176.94;5001176;28;20503;-63
2022/10/22 11:12:37;;;;;;;2.10;0.67;;;;;;;29.45;47.59;100165.25;5002102;28;20034;-63
2022/10/22 11:15:26;;;;;;;0.98;0.50;;;;;;;29.57;47.74;100166.69;5000042;28;20049;-62
2022/10/22 11:17:56;;;;;;;2.13;0.55;;;;;;;29.67;47.92;100164.66;4999770;28;20113;-63
2022/10/22 11:20:38;;;;;;;3.35;0.70;;;;;;;29.53;47.58;100162.53;4998993;28;20041;-63
2022/10/22 11:23:11;;;;;;;5.00;0.50;;;;;;;29.44;45.81;100169.03;4997389;28;20083;-63
2022/10/22 11:25:45;;;;;;;2.38;0.47;;;;;;;29.64;46.31;100159.47;4999480;28;20053;-63
2022/10/22 11:28:20;;;;;;;1.73;0.50;;;;;;;29.67;46.18;100150.94;4996969;28;20045;-62
2022/10/22 11:30:52;;;;;;;2.75;0.50;;;;;;;29.94;46.25;100164.38;4997662;28;20041;-63
2022/10/22 11:33:22;;;;;;;2.55;0.90;;;;;;;30.11;44.98;100162.50;4995630;28;20021;-63
2022/10/22 11:35:49;;;;;;;1.90;0.63;;;;;;;29.73;44.40;100166.75;4996873;28;20129;-63
2022/10/22 11:38:19;;;;;;;1.58;0.40;;;;;;;29.56;44.81;100159.47;5001514;28;20937;-62
2022/10/22 11:40:50;;;;;;;3.65;0.73;;;;;;;29.67;44.87;100161.91;4996831;28;20030;-63